KPPF/PPF METAR and TAF weather

Enter ICAO airport designator
Station Type Date Time Source
KPPF METAR 2019/02/16 06:52 UTC NOAA

KPPF 160652Z AUTO 03005KT 10SM BKN011 BKN020 OVC026 M07/M08 A3008 RMK AO2 SLP197 T10671078


Station Type Date Time Source
KPPF Decoded METAR 2019/02/16 06:52 UTC NOAA

PARSONS TRI-CITY AIRPORT, KS, United States (KPPF) 37-20N 95-30W 274M
Feb 16, 2019 - 01:52 AM EST / 2019.02.16 0652 UTC
Wind: from the NNE (030 degrees) at 6 MPH (5 KT):0
Visibility: 10 mile(s):0
Sky conditions: overcast
Temperature: 19.9 F (-6.7 C)
Windchill: 12 F (-11 C):1
Dew Point: 18.0 F (-7.8 C)
Relative Humidity: 91%
Pressure (altimeter): 30.08 in. Hg (1018 hPa)
ob: KPPF 160652Z AUTO 03005KT 10SM BKN011 BKN020 OVC026 M07/M08 A3008 RMK AO2 SLP197 T10671078
cycle: 7

Station Type Date Time Source
KPPF TAF UTC NOAA

Error!


Example: see airport list